sensor_id;sensor_type;location;lat;lon;timestamp;P1;durP1;ratioP1;P2;durP2;ratioP2
18726;SDS011;9492;51.888;5.186;2023-08-21T00:00:00;6.37;;;1.83;;
18726;SDS011;9492;51.888;5.186;2023-08-21T00:02:26;2.13;;;1.07;;
18726;SDS011;9492;51.888;5.186;2023-08-21T00:04:53;3.37;;;1.40;;
18726;SDS011;9492;51.888;5.186;2023-08-21T00:07:19;5.17;;;1.73;;
18726;SDS011;9492;51.888;5.186;2023-08-21T00:09:45;1.87;;;1.20;;
18726;SDS011;9492;51.888;5.186;2023-08-21T00:12:11;1.73;;;1.20;;
18726;SDS011;9492;51.888;5.186;2023-08-21T00:14:37;2.77;;;1.47;;
18726;SDS011;9492;51.888;5.186;2023-08-21T00:17:03;3.30;;;1.60;;
18726;SDS011;9492;51.888;5.186;2023-08-21T00:19:29;2.80;;;1.70;;
18726;SDS011;9492;51.888;5.186;2023-08-21T00:21:55;2.80;;;1.47;;
18726;SDS011;9492;51.888;5.186;2023-08-21T00:24:21;4.73;;;1.60;;
18726;SDS011;9492;51.888;5.186;2023-08-21T00:26:47;2.13;;;1.20;;
18726;SDS011;9492;51.888;5.186;2023-08-21T00:29:13;4.33;;;1.30;;
18726;SDS011;9492;51.888;5.186;2023-08-21T00:31:39;4.27;;;1.73;;
18726;SDS011;9492;51.888;5.186;2023-08-21T00:34:05;1.13;;;1.00;;
18726;SDS011;9492;51.888;5.186;2023-08-21T00:36:31;2.93;;;1.10;;
18726;SDS011;9492;51.888;5.186;2023-08-21T00:38:57;3.83;;;1.47;;
18726;SDS011;9492;51.888;5.186;2023-08-21T00:41:23;2.67;;;1.53;;
18726;SDS011;9492;51.888;5.186;2023-08-21T00:43:49;3.27;;;1.17;;
18726;SDS011;9492;51.888;5.186;2023-08-21T00:46:15;2.20;;;1.03;;
18726;SDS011;9492;51.888;5.186;2023-08-21T00:48:42;5.53;;;1.70;;
18726;SDS011;9492;51.888;5.186;2023-08-21T00:51:09;1.80;;;1.37;;
18726;SDS011;9492;51.888;5.186;2023-08-21T00:53:36;2.30;;;1.60;;
18726;SDS011;9492;51.888;5.186;2023-08-21T00:56:02;4.07;;;1.80;;
18726;SDS011;9492;51.888;5.186;2023-08-21T00:58:28;6.53;;;1.50;;
18726;SDS011;9492;51.888;5.186;2023-08-21T01:00:54;3.70;;;2.03;;
18726;SDS011;9492;51.888;5.186;2023-08-21T01:03:22;2.40;;;1.43;;
18726;SDS011;9492;51.888;5.186;2023-08-21T01:05:49;8.13;;;1.37;;
18726;SDS011;9492;51.888;5.186;2023-08-21T01:08:23;4.00;;;1.70;;
18726;SDS011;9492;51.888;5.186;2023-08-21T01:11:14;4.13;;;1.73;;
18726;SDS011;9492;51.888;5.186;2023-08-21T01:13:44;6.30;;;2.37;;
18726;SDS011;9492;51.888;5.186;2023-08-21T01:16:12;2.67;;;1.43;;
18726;SDS011;9492;51.888;5.186;2023-08-21T01:18:39;4.57;;;1.93;;
18726;SDS011;9492;51.888;5.186;2023-08-21T01:21:05;5.27;;;1.90;;
18726;SDS011;9492;51.888;5.186;2023-08-21T01:23:35;2.80;;;2.20;;
18726;SDS011;9492;51.888;5.186;2023-08-21T01:26:01;4.23;;;2.20;;
18726;SDS011;9492;51.888;5.186;2023-08-21T01:28:27;3.43;;;2.00;;
18726;SDS011;9492;51.888;5.186;2023-08-21T01:31:03;6.63;;;2.17;;
18726;SDS011;9492;51.888;5.186;2023-08-21T01:33:30;6.53;;;2.30;;
18726;SDS011;9492;51.888;5.186;2023-08-21T01:35:58;4.47;;;2.00;;
18726;SDS011;9492;51.888;5.186;2023-08-21T01:38:24;2.97;;;2.60;;
18726;SDS011;9492;51.888;5.186;2023-08-21T01:40:50;3.27;;;2.07;;
18726;SDS011;9492;51.888;5.186;2023-08-21T01:43:16;3.80;;;2.37;;
18726;SDS011;9492;51.888;5.186;2023-08-21T01:45:43;3.23;;;2.00;;
18726;SDS011;9492;51.888;5.186;2023-08-21T01:48:09;4.90;;;2.50;;
18726;SDS011;9492;51.888;5.186;2023-08-21T01:50:35;5.10;;;2.40;;
18726;SDS011;9492;51.888;5.186;2023-08-21T01:53:01;3.57;;;2.90;;
18726;SDS011;9492;51.888;5.186;2023-08-21T01:55:27;8.73;;;3.10;;
18726;SDS011;9492;51.888;5.186;2023-08-21T01:57:53;4.97;;;2.33;;
18726;SDS011;9492;51.888;5.186;2023-08-21T02:00:19;4.00;;;2.40;;
18726;SDS011;9492;51.888;5.186;2023-08-21T02:02:45;4.23;;;2.70;;
18726;SDS011;9492;51.888;5.186;2023-08-21T02:05:11;4.93;;;2.90;;
18726;SDS011;9492;51.888;5.186;2023-08-21T02:07:37;4.73;;;3.23;;
18726;SDS011;9492;51.888;5.186;2023-08-21T02:10:03;5.63;;;2.83;;
18726;SDS011;9492;51.888;5.186;2023-08-21T02:12:29;4.90;;;3.00;;
18726;SDS011;9492;51.888;5.186;2023-08-21T02:14:55;5.43;;;2.77;;
18726;SDS011;9492;51.888;5.186;2023-08-21T02:17:21;6.53;;;2.83;;
18726;SDS011;9492;51.888;5.186;2023-08-21T02:19:47;8.33;;;2.77;;
18726;SDS011;9492;51.888;5.186;2023-08-21T02:22:13;5.77;;;2.40;;
18726;SDS011;9492;51.888;5.186;2023-08-21T02:24:39;3.97;;;2.50;;
18726;SDS011;9492;51.888;5.186;2023-08-21T02:27:05;6.70;;;2.80;;
18726;SDS011;9492;51.888;5.186;2023-08-21T02:29:31;2.90;;;2.57;;
18726;SDS011;9492;51.888;5.186;2023-08-21T02:31:57;9.33;;;3.27;;
18726;SDS011;9492;51.888;5.186;2023-08-21T02:34:23;6.10;;;2.73;;
18726;SDS011;9492;51.888;5.186;2023-08-21T02:36:50;7.50;;;2.87;;
18726;SDS011;9492;51.888;5.186;2023-08-21T02:39:15;7.57;;;2.90;;
18726;SDS011;9492;51.888;5.186;2023-08-21T02:41:41;8.07;;;3.00;;
18726;SDS011;9492;51.888;5.186;2023-08-21T02:44:07;4.47;;;2.87;;
18726;SDS011;9492;51.888;5.186;2023-08-21T02:46:33;3.97;;;2.70;;
18726;SDS011;9492;51.888;5.186;2023-08-21T02:49:01;4.53;;;2.50;;
18726;SDS011;9492;51.888;5.186;2023-08-21T02:51:27;5.37;;;2.83;;
18726;SDS011;9492;51.888;5.186;2023-08-21T02:53:53;5.93;;;2.70;;
18726;SDS011;9492;51.888;5.186;2023-08-21T02:56:19;5.50;;;2.80;;
18726;SDS011;9492;51.888;5.186;2023-08-21T02:58:45;4.60;;;2.40;;
18726;SDS011;9492;51.888;5.186;2023-08-21T03:01:11;9.30;;;2.80;;
18726;SDS011;9492;51.888;5.186;2023-08-21T03:03:37;2.83;;;2.40;;
18726;SDS011;9492;51.888;5.186;2023-08-21T03:06:03;4.17;;;2.57;;
18726;SDS011;9492;51.888;5.186;2023-08-21T03:08:29;5.27;;;2.47;;
18726;SDS011;9492;51.888;5.186;2023-08-21T03:10:55;3.57;;;2.20;;
18726;SDS011;9492;51.888;5.186;2023-08-21T03:13:21;4.33;;;2.37;;
18726;SDS011;9492;51.888;5.186;2023-08-21T03:15:47;7.63;;;2.60;;
18726;SDS011;9492;51.888;5.186;2023-08-21T03:18:13;3.07;;;2.37;;
18726;SDS011;9492;51.888;5.186;2023-08-21T03:20:43;3.00;;;2.10;;
18726;SDS011;9492;51.888;5.186;2023-08-21T03:23:09;6.17;;;2.83;;
18726;SDS011;9492;51.888;5.186;2023-08-21T03:25:35;6.23;;;3.00;;
18726;SDS011;9492;51.888;5.186;2023-08-21T03:28:01;4.90;;;2.73;;
18726;SDS011;9492;51.888;5.186;2023-08-21T03:30:27;6.20;;;2.80;;
18726;SDS011;9492;51.888;5.186;2023-08-21T03:32:53;6.33;;;2.70;;
18726;SDS011;9492;51.888;5.186;2023-08-21T03:35:19;4.43;;;2.50;;
18726;SDS011;9492;51.888;5.186;2023-08-21T03:37:45;4.93;;;2.80;;
18726;SDS011;9492;51.888;5.186;2023-08-21T03:40:11;7.00;;;3.50;;
18726;SDS011;9492;51.888;5.186;2023-08-21T03:42:37;3.70;;;2.30;;
18726;SDS011;9492;51.888;5.186;2023-08-21T03:45:04;4.27;;;2.70;;
18726;SDS011;9492;51.888;5.186;2023-08-21T03:47:30;5.83;;;2.47;;
18726;SDS011;9492;51.888;5.186;2023-08-21T03:49:56;5.37;;;2.57;;
18726;SDS011;9492;51.888;5.186;2023-08-21T03:52:22;2.57;;;2.17;;
18726;SDS011;9492;51.888;5.186;2023-08-21T03:54:48;2.93;;;2.40;;
18726;SDS011;9492;51.888;5.186;2023-08-21T03:57:14;4.07;;;2.40;;
18726;SDS011;9492;51.888;5.186;2023-08-21T03:59:40;2.90;;;2.43;;
18726;SDS011;9492;51.888;5.186;2023-08-21T04:02:06;4.47;;;2.70;;
18726;SDS011;9492;51.888;5.186;2023-08-21T04:04:32;3.80;;;2.27;;
18726;SDS011;9492;51.888;5.186;2023-08-21T04:06:58;4.57;;;2.80;;
18726;SDS011;9492;51.888;5.186;2023-08-21T04:09:24;3.10;;;2.23;;
18726;SDS011;9492;51.888;5.186;2023-08-21T04:11:50;6.60;;;2.73;;
18726;SDS011;9492;51.888;5.186;2023-08-21T04:14:16;5.53;;;2.63;;
18726;SDS011;9492;51.888;5.186;2023-08-21T04:16:42;3.83;;;2.33;;
18726;SDS011;9492;51.888;5.186;2023-08-21T04:19:08;5.23;;;2.40;;
18726;SDS011;9492;51.888;5.186;2023-08-21T04:21:34;4.70;;;2.70;;
18726;SDS011;9492;51.888;5.186;2023-08-21T04:24:00;5.40;;;2.70;;
18726;SDS011;9492;51.888;5.186;2023-08-21T04:26:26;4.47;;;2.77;;
18726;SDS011;9492;51.888;5.186;2023-08-21T04:28:52;5.77;;;2.60;;
18726;SDS011;9492;51.888;5.186;2023-08-21T04:31:18;6.00;;;2.50;;
18726;SDS011;9492;51.888;5.186;2023-08-21T04:33:44;5.07;;;2.93;;
18726;SDS011;9492;51.888;5.186;2023-08-21T04:36:16;5.63;;;2.83;;
18726;SDS011;9492;51.888;5.186;2023-08-21T04:38:43;5.40;;;2.60;;
18726;SDS011;9492;51.888;5.186;2023-08-21T04:41:09;4.20;;;2.63;;
18726;SDS011;9492;51.888;5.186;2023-08-21T04:43:35;4.23;;;2.90;;
18726;SDS011;9492;51.888;5.186;2023-08-21T04:46:01;5.27;;;2.60;;
18726;SDS011;9492;51.888;5.186;2023-08-21T04:48:27;3.90;;;2.80;;
18726;SDS011;9492;51.888;5.186;2023-08-21T04:50:53;6.07;;;2.63;;
18726;SDS011;9492;51.888;5.186;2023-08-21T04:53:19;5.20;;;2.70;;
18726;SDS011;9492;51.888;5.186;2023-08-21T04:55:45;6.53;;;2.60;;
18726;SDS011;9492;51.888;5.186;2023-08-21T04:58:11;6.60;;;3.17;;
18726;SDS011;9492;51.888;5.186;2023-08-21T05:00:37;2.57;;;2.30;;
18726;SDS011;9492;51.888;5.186;2023-08-21T05:03:03;5.30;;;2.70;;
18726;SDS011;9492;51.888;5.186;2023-08-21T05:05:29;9.07;;;2.57;;
18726;SDS011;9492;51.888;5.186;2023-08-21T05:07:55;4.97;;;3.63;;
18726;SDS011;9492;51.888;5.186;2023-08-21T05:10:21;5.87;;;2.70;;
18726;SDS011;9492;51.888;5.186;2023-08-21T05:12:47;5.77;;;2.67;;
18726;SDS011;9492;51.888;5.186;2023-08-21T05:15:13;7.53;;;2.60;;
18726;SDS011;9492;51.888;5.186;2023-08-21T05:17:40;6.97;;;2.67;;
18726;SDS011;9492;51.888;5.186;2023-08-21T05:20:06;5.00;;;2.80;;
18726;SDS011;9492;51.888;5.186;2023-08-21T05:22:32;5.90;;;2.77;;
18726;SDS011;9492;51.888;5.186;2023-08-21T05:24:58;5.77;;;2.43;;
18726;SDS011;9492;51.888;5.186;2023-08-21T05:27:24;5.10;;;2.90;;
18726;SDS011;9492;51.888;5.186;2023-08-21T05:29:50;6.53;;;3.20;;
18726;SDS011;9492;51.888;5.186;2023-08-21T05:32:16;3.73;;;2.60;;
18726;SDS011;9492;51.888;5.186;2023-08-21T05:34:42;5.73;;;2.70;;
18726;SDS011;9492;51.888;5.186;2023-08-21T05:37:09;6.80;;;2.83;;
18726;SDS011;9492;51.888;5.186;2023-08-21T05:39:35;3.57;;;2.77;;
18726;SDS011;9492;51.888;5.186;2023-08-21T05:42:01;3.73;;;2.30;;
18726;SDS011;9492;51.888;5.186;2023-08-21T05:44:27;3.40;;;2.70;;
18726;SDS011;9492;51.888;5.186;2023-08-21T05:46:53;3.30;;;2.20;;
18726;SDS011;9492;51.888;5.186;2023-08-21T05:49:19;5.07;;;2.70;;
18726;SDS011;9492;51.888;5.186;2023-08-21T05:51:45;6.17;;;2.93;;
18726;SDS011;9492;51.888;5.186;2023-08-21T05:54:11;6.97;;;2.80;;
18726;SDS011;9492;51.888;5.186;2023-08-21T05:56:37;5.27;;;2.67;;
18726;SDS011;9492;51.888;5.186;2023-08-21T05:59:03;5.83;;;2.53;;
18726;SDS011;9492;51.888;5.186;2023-08-21T06:01:29;5.33;;;2.93;;
18726;SDS011;9492;51.888;5.186;2023-08-21T06:03:57;5.40;;;2.50;;
18726;SDS011;9492;51.888;5.186;2023-08-21T06:06:23;5.33;;;2.77;;
18726;SDS011;9492;51.888;5.186;2023-08-21T06:08:49;7.10;;;2.90;;
18726;SDS011;9492;51.888;5.186;2023-08-21T06:11:15;7.00;;;3.00;;
18726;SDS011;9492;51.888;5.186;2023-08-21T06:13:41;5.77;;;2.60;;
18726;SDS011;9492;51.888;5.186;2023-08-21T06:16:07;7.60;;;2.80;;
18726;SDS011;9492;51.888;5.186;2023-08-21T06:18:33;4.20;;;2.80;;
18726;SDS011;9492;51.888;5.186;2023-08-21T06:20:59;7.83;;;3.17;;
18726;SDS011;9492;51.888;5.186;2023-08-21T06:23:25;6.33;;;3.17;;
18726;SDS011;9492;51.888;5.186;2023-08-21T06:25:51;3.80;;;2.70;;
18726;SDS011;9492;51.888;5.186;2023-08-21T06:28:17;4.57;;;2.67;;
18726;SDS011;9492;51.888;5.186;2023-08-21T06:30:43;4.60;;;2.63;;
18726;SDS011;9492;51.888;5.186;2023-08-21T06:33:09;6.43;;;2.80;;
18726;SDS011;9492;51.888;5.186;2023-08-21T06:35:36;7.43;;;3.17;;
18726;SDS011;9492;51.888;5.186;2023-08-21T06:38:02;9.33;;;3.50;;
18726;SDS011;9492;51.888;5.186;2023-08-21T06:40:28;4.40;;;2.90;;
18726;SDS011;9492;51.888;5.186;2023-08-21T06:42:54;4.43;;;2.83;;
18726;SDS011;9492;51.888;5.186;2023-08-21T06:45:21;6.47;;;3.67;;
18726;SDS011;9492;51.888;5.186;2023-08-21T06:47:46;5.53;;;2.87;;
18726;SDS011;9492;51.888;5.186;2023-08-21T06:50:15;5.70;;;3.23;;
18726;SDS011;9492;51.888;5.186;2023-08-21T06:52:41;8.03;;;2.80;;
18726;SDS011;9492;51.888;5.186;2023-08-21T06:55:08;5.93;;;3.03;;
18726;SDS011;9492;51.888;5.186;2023-08-21T06:57:34;7.00;;;3.20;;
18726;SDS011;9492;51.888;5.186;2023-08-21T07:00:02;5.53;;;3.00;;
18726;SDS011;9492;51.888;5.186;2023-08-21T07:02:29;5.17;;;3.10;;
18726;SDS011;9492;51.888;5.186;2023-08-21T07:04:55;6.23;;;3.30;;
18726;SDS011;9492;51.888;5.186;2023-08-21T07:07:21;10.27;;;3.63;;
18726;SDS011;9492;51.888;5.186;2023-08-21T07:09:47;7.83;;;3.73;;
18726;SDS011;9492;51.888;5.186;2023-08-21T07:12:13;7.43;;;3.47;;
18726;SDS011;9492;51.888;5.186;2023-08-21T07:14:39;6.17;;;3.20;;
18726;SDS011;9492;51.888;5.186;2023-08-21T07:17:05;6.03;;;2.87;;
18726;SDS011;9492;51.888;5.186;2023-08-21T07:19:31;6.63;;;2.90;;
18726;SDS011;9492;51.888;5.186;2023-08-21T07:21:57;7.07;;;2.80;;
18726;SDS011;9492;51.888;5.186;2023-08-21T07:24:23;4.40;;;2.27;;
18726;SDS011;9492;51.888;5.186;2023-08-21T07:26:49;6.73;;;2.63;;
18726;SDS011;9492;51.888;5.186;2023-08-21T07:29:15;5.73;;;2.37;;
18726;SDS011;9492;51.888;5.186;2023-08-21T07:31:41;9.13;;;2.67;;
18726;SDS011;9492;51.888;5.186;2023-08-21T07:34:07;4.53;;;2.40;;
18726;SDS011;9492;51.888;5.186;2023-08-21T07:36:33;5.78;;;2.28;;
18726;SDS011;9492;51.888;5.186;2023-08-21T07:38:59;4.73;;;2.10;;
18726;SDS011;9492;51.888;5.186;2023-08-21T07:41:25;5.85;;;2.25;;
18726;SDS011;9492;51.888;5.186;2023-08-21T07:43:51;7.50;;;2.42;;
18726;SDS011;9492;51.888;5.186;2023-08-21T07:46:17;4.60;;;2.10;;
18726;SDS011;9492;51.888;5.186;2023-08-21T07:48:44;4.63;;;2.13;;
18726;SDS011;9492;51.888;5.186;2023-08-21T07:51:10;3.40;;;1.77;;
18726;SDS011;9492;51.888;5.186;2023-08-21T07:53:36;3.55;;;1.70;;
18726;SDS011;9492;51.888;5.186;2023-08-21T07:56:03;3.50;;;2.05;;
18726;SDS011;9492;51.888;5.186;2023-08-21T07:58:29;3.80;;;1.60;;
18726;SDS011;9492;51.888;5.186;2023-08-21T08:00:55;5.03;;;2.25;;
18726;SDS011;9492;51.888;5.186;2023-08-21T08:03:21;3.67;;;1.80;;
18726;SDS011;9492;51.888;5.186;2023-08-21T08:05:47;7.70;;;2.22;;
18726;SDS011;9492;51.888;5.186;2023-08-21T08:08:16;4.95;;;2.30;;
18726;SDS011;9492;51.888;5.186;2023-08-21T08:10:42;4.53;;;1.85;;
18726;SDS011;9492;51.888;5.186;2023-08-21T08:13:09;5.55;;;1.85;;
18726;SDS011;9492;51.888;5.186;2023-08-21T08:15:35;5.68;;;1.90;;
18726;SDS011;9492;51.888;5.186;2023-08-21T08:18:02;5.90;;;1.90;;
18726;SDS011;9492;51.888;5.186;2023-08-21T08:20:28;5.60;;;2.10;;
18726;SDS011;9492;51.888;5.186;2023-08-21T08:22:54;4.70;;;1.75;;
18726;SDS011;9492;51.888;5.186;2023-08-21T08:25:21;4.60;;;1.63;;
18726;SDS011;9492;51.888;5.186;2023-08-21T08:27:47;3.88;;;2.30;;
18726;SDS011;9492;51.888;5.186;2023-08-21T08:30:13;5.20;;;1.58;;
18726;SDS011;9492;51.888;5.186;2023-08-21T08:32:40;4.63;;;1.92;;
18726;SDS011;9492;51.888;5.186;2023-08-21T08:35:09;5.32;;;2.38;;
18726;SDS011;9492;51.888;5.186;2023-08-21T08:37:35;3.75;;;1.58;;
18726;SDS011;9492;51.888;5.186;2023-08-21T08:40:01;6.68;;;1.98;;
18726;SDS011;9492;51.888;5.186;2023-08-21T08:42:28;6.03;;;2.03;;
18726;SDS011;9492;51.888;5.186;2023-08-21T08:44:54;6.97;;;2.00;;
18726;SDS011;9492;51.888;5.186;2023-08-21T08:47:20;5.53;;;1.48;;
18726;SDS011;9492;51.888;5.186;2023-08-21T08:49:47;6.70;;;1.67;;
18726;SDS011;9492;51.888;5.186;2023-08-21T08:52:14;4.75;;;1.63;;
18726;SDS011;9492;51.888;5.186;2023-08-21T08:54:42;5.40;;;1.63;;
18726;SDS011;9492;51.888;5.186;2023-08-21T08:57:08;6.07;;;1.85;;
18726;SDS011;9492;51.888;5.186;2023-08-21T08:59:34;5.40;;;1.80;;
18726;SDS011;9492;51.888;5.186;2023-08-21T09:02:00;5.22;;;1.88;;
18726;SDS011;9492;51.888;5.186;2023-08-21T09:04:26;6.97;;;2.25;;
18726;SDS011;9492;51.888;5.186;2023-08-21T09:06:58;5.40;;;2.03;;
18726;SDS011;9492;51.888;5.186;2023-08-21T09:09:37;4.90;;;2.30;;
18726;SDS011;9492;51.888;5.186;2023-08-21T09:12:06;6.63;;;2.05;;
18726;SDS011;9492;51.888;5.186;2023-08-21T09:14:32;5.30;;;2.90;;
18726;SDS011;9492;51.888;5.186;2023-08-21T09:16:59;7.95;;;2.47;;
18726;SDS011;9492;51.888;5.186;2023-08-21T09:19:28;7.03;;;2.13;;
18726;SDS011;9492;51.888;5.186;2023-08-21T09:21:54;6.82;;;2.50;;
18726;SDS011;9492;51.888;5.186;2023-08-21T09:24:20;6.43;;;2.40;;
18726;SDS011;9492;51.888;5.186;2023-08-21T09:26:46;4.07;;;1.77;;
18726;SDS011;9492;51.888;5.186;2023-08-21T09:29:12;6.05;;;2.28;;
18726;SDS011;9492;51.888;5.186;2023-08-21T09:31:38;7.10;;;2.03;;
18726;SDS011;9492;51.888;5.186;2023-08-21T09:34:04;5.30;;;2.03;;
18726;SDS011;9492;51.888;5.186;2023-08-21T09:36:31;6.63;;;2.25;;
18726;SDS011;9492;51.888;5.186;2023-08-21T09:38:57;4.20;;;1.73;;
18726;SDS011;9492;51.888;5.186;2023-08-21T09:41:23;3.30;;;1.40;;
18726;SDS011;9492;51.888;5.186;2023-08-21T09:43:49;4.32;;;1.50;;
18726;SDS011;9492;51.888;5.186;2023-08-21T09:46:16;3.03;;;1.42;;
18726;SDS011;9492;51.888;5.186;2023-08-21T09:48:43;6.30;;;1.75;;
18726;SDS011;9492;51.888;5.186;2023-08-21T09:51:10;4.50;;;1.55;;
18726;SDS011;9492;51.888;5.186;2023-08-21T09:53:36;5.00;;;2.08;;
18726;SDS011;9492;51.888;5.186;2023-08-21T09:56:04;5.10;;;1.65;;
18726;SDS011;9492;51.888;5.186;2023-08-21T09:58:30;6.07;;;1.95;;
18726;SDS011;9492;51.888;5.186;2023-08-21T10:00:57;7.75;;;2.03;;
18726;SDS011;9492;51.888;5.186;2023-08-21T10:03:23;5.65;;;2.05;;
18726;SDS011;9492;51.888;5.186;2023-08-21T10:05:49;4.38;;;1.35;;
18726;SDS011;9492;51.888;5.186;2023-08-21T10:08:16;6.22;;;1.63;;
18726;SDS011;9492;51.888;5.186;2023-08-21T10:10:44;4.05;;;1.30;;
18726;SDS011;9492;51.888;5.186;2023-08-21T10:13:09;3.92;;;1.58;;
18726;SDS011;9492;51.888;5.186;2023-08-21T10:15:36;2.88;;;1.25;;
18726;SDS011;9492;51.888;5.186;2023-08-21T10:18:18;3.38;;;1.55;;
18726;SDS011;9492;51.888;5.186;2023-08-21T10:20:45;6.45;;;1.65;;
18726;SDS011;9492;51.888;5.186;2023-08-21T10:23:11;2.78;;;1.23;;
18726;SDS011;9492;51.888;5.186;2023-08-21T10:25:48;5.43;;;1.50;;
18726;SDS011;9492;51.888;5.186;2023-08-21T10:28:19;4.15;;;1.38;;
18726;SDS011;9492;51.888;5.186;2023-08-21T10:30:45;4.90;;;1.48;;
18726;SDS011;9492;51.888;5.186;2023-08-21T10:33:11;2.92;;;1.42;;
18726;SDS011;9492;51.888;5.186;2023-08-21T10:35:37;3.85;;;1.33;;
18726;SDS011;9492;51.888;5.186;2023-08-21T10:38:16;4.90;;;1.40;;
18726;SDS011;9492;51.888;5.186;2023-08-21T10:43:43;7.68;;;1.83;;
18726;SDS011;9492;51.888;5.186;2023-08-21T10:46:09;4.32;;;1.48;;
18726;SDS011;9492;51.888;5.186;2023-08-21T10:48:36;5.38;;;1.92;;
18726;SDS011;9492;51.888;5.186;2023-08-21T10:51:03;3.47;;;1.50;;
18726;SDS011;9492;51.888;5.186;2023-08-21T10:53:29;4.40;;;1.45;;
18726;SDS011;9492;51.888;5.186;2023-08-21T10:55:56;2.50;;;1.15;;
18726;SDS011;9492;51.888;5.186;2023-08-21T10:58:22;5.35;;;2.28;;
18726;SDS011;9492;51.888;5.186;2023-08-21T11:00:57;5.13;;;2.42;;
18726;SDS011;9492;51.888;5.186;2023-08-21T11:03:23;5.13;;;1.67;;
18726;SDS011;9492;51.888;5.186;2023-08-21T11:06:05;3.75;;;1.40;;
18726;SDS011;9492;51.888;5.186;2023-08-21T11:08:32;3.22;;;0.93;;
18726;SDS011;9492;51.888;5.186;2023-08-21T11:10:59;3.63;;;0.95;;
18726;SDS011;9492;51.888;5.186;2023-08-21T11:13:25;3.08;;;1.13;;
18726;SDS011;9492;51.888;5.186;2023-08-21T11:15:58;2.75;;;1.00;;
18726;SDS011;9492;51.888;5.186;2023-08-21T11:18:29;2.45;;;0.90;;
18726;SDS011;9492;51.888;5.186;2023-08-21T11:21:02;1.75;;;1.00;;
18726;SDS011;9492;51.888;5.186;2023-08-21T11:23:32;3.22;;;1.02;;
18726;SDS011;9492;51.888;5.186;2023-08-21T11:25:58;1.02;;;0.70;;
18726;SDS011;9492;51.888;5.186;2023-08-21T11:28:24;2.72;;;1.10;;
18726;SDS011;9492;51.888;5.186;2023-08-21T11:30:50;1.80;;;0.80;;
18726;SDS011;9492;51.888;5.186;2023-08-21T11:33:16;3.08;;;1.02;;
18726;SDS011;9492;51.888;5.186;2023-08-21T11:35:43;1.95;;;0.95;;
18726;SDS011;9492;51.888;5.186;2023-08-21T11:38:22;2.67;;;0.98;;
18726;SDS011;9492;51.888;5.186;2023-08-21T11:43:17;2.97;;;1.30;;
18726;SDS011;9492;51.888;5.186;2023-08-21T11:45:45;2.85;;;0.70;;
18726;SDS011;9492;51.888;5.186;2023-08-21T11:48:11;2.38;;;0.90;;
18726;SDS011;9492;51.888;5.186;2023-08-21T11:50:38;1.65;;;0.70;;
18726;SDS011;9492;51.888;5.186;2023-08-21T11:53:04;2.10;;;0.80;;
18726;SDS011;9492;51.888;5.186;2023-08-21T11:55:30;1.63;;;1.02;;
18726;SDS011;9492;51.888;5.186;2023-08-21T11:57:57;2.78;;;1.20;;
18726;SDS011;9492;51.888;5.186;2023-08-21T12:00:29;3.30;;;0.88;;
18726;SDS011;9492;51.888;5.186;2023-08-21T12:02:59;3.67;;;1.00;;
18726;SDS011;9492;51.888;5.186;2023-08-21T12:05:26;2.78;;;1.20;;
18726;SDS011;9492;51.888;5.186;2023-08-21T12:07:52;2.03;;;0.80;;
18726;SDS011;9492;51.888;5.186;2023-08-21T12:10:22;2.60;;;0.95;;
18726;SDS011;9492;51.888;5.186;2023-08-21T12:12:48;4.35;;;1.15;;
18726;SDS011;9492;51.888;5.186;2023-08-21T12:15:14;2.83;;;1.30;;
18726;SDS011;9492;51.888;5.186;2023-08-21T12:17:40;2.10;;;1.20;;
18726;SDS011;9492;51.888;5.186;2023-08-21T12:20:06;2.00;;;1.42;;
18726;SDS011;9492;51.888;5.186;2023-08-21T12:22:35;3.53;;;1.20;;
18726;SDS011;9492;51.888;5.186;2023-08-21T12:25:01;2.97;;;1.10;;
18726;SDS011;9492;51.888;5.186;2023-08-21T12:27:29;1.63;;;0.80;;
18726;SDS011;9492;51.888;5.186;2023-08-21T12:29:55;2.30;;;0.90;;
18726;SDS011;9492;51.888;5.186;2023-08-21T12:32:21;0.95;;;0.80;;
18726;SDS011;9492;51.888;5.186;2023-08-21T12:34:47;3.33;;;1.02;;
18726;SDS011;9492;51.888;5.186;2023-08-21T12:37:13;2.42;;;1.13;;
18726;SDS011;9492;51.888;5.186;2023-08-21T12:39:39;2.05;;;0.90;;
18726;SDS011;9492;51.888;5.186;2023-08-21T12:42:05;2.17;;;0.73;;
18726;SDS011;9492;51.888;5.186;2023-08-21T12:44:32;3.28;;;1.10;;
18726;SDS011;9492;51.888;5.186;2023-08-21T12:46:58;1.80;;;0.80;;
18726;SDS011;9492;51.888;5.186;2023-08-21T12:49:24;2.90;;;1.10;;
18726;SDS011;9492;51.888;5.186;2023-08-21T12:51:51;1.38;;;0.95;;
18726;SDS011;9492;51.888;5.186;2023-08-21T12:54:17;3.25;;;1.20;;
18726;SDS011;9492;51.888;5.186;2023-08-21T12:56:43;3.80;;;1.15;;
18726;SDS011;9492;51.888;5.186;2023-08-21T12:59:09;3.00;;;1.10;;
18726;SDS011;9492;51.888;5.186;2023-08-21T13:01:35;2.75;;;0.70;;
18726;SDS011;9492;51.888;5.186;2023-08-21T13:04:02;2.05;;;0.90;;
18726;SDS011;9492;51.888;5.186;2023-08-21T13:06:28;1.77;;;1.00;;
18726;SDS011;9492;51.888;5.186;2023-08-21T13:08:54;2.65;;;0.77;;
18726;SDS011;9492;51.888;5.186;2023-08-21T13:11:20;2.28;;;1.08;;
18726;SDS011;9492;51.888;5.186;2023-08-21T13:13:46;3.15;;;1.00;;
18726;SDS011;9492;51.888;5.186;2023-08-21T13:16:13;4.78;;;1.17;;
18726;SDS011;9492;51.888;5.186;2023-08-21T13:18:39;3.45;;;1.17;;
18726;SDS011;9492;51.888;5.186;2023-08-21T13:21:05;2.20;;;1.00;;
18726;SDS011;9492;51.888;5.186;2023-08-21T13:23:32;1.70;;;0.82;;
18726;SDS011;9492;51.888;5.186;2023-08-21T13:25:59;4.18;;;1.02;;
18726;SDS011;9492;51.888;5.186;2023-08-21T13:28:25;3.22;;;1.15;;
18726;SDS011;9492;51.888;5.186;2023-08-21T13:30:51;6.15;;;1.40;;
18726;SDS011;9492;51.888;5.186;2023-08-21T13:33:20;2.78;;;1.23;;
18726;SDS011;9492;51.888;5.186;2023-08-21T13:35:46;4.10;;;1.02;;
18726;SDS011;9492;51.888;5.186;2023-08-21T13:38:12;4.13;;;1.17;;
18726;SDS011;9492;51.888;5.186;2023-08-21T13:40:39;1.95;;;0.90;;
18726;SDS011;9492;51.888;5.186;2023-08-21T13:43:05;1.55;;;0.85;;
18726;SDS011;9492;51.888;5.186;2023-08-21T13:45:32;1.88;;;1.10;;
18726;SDS011;9492;51.888;5.186;2023-08-21T13:47:58;1.95;;;0.93;;
18726;SDS011;9492;51.888;5.186;2023-08-21T13:50:24;1.33;;;0.70;;
18726;SDS011;9492;51.888;5.186;2023-08-21T13:52:50;1.48;;;0.80;;
18726;SDS011;9492;51.888;5.186;2023-08-21T13:55:16;1.13;;;0.70;;
18726;SDS011;9492;51.888;5.186;2023-08-21T13:57:42;1.70;;;0.93;;
18726;SDS011;9492;51.888;5.186;2023-08-21T14:00:09;2.47;;;0.77;;
18726;SDS011;9492;51.888;5.186;2023-08-21T14:02:40;1.55;;;0.90;;
18726;SDS011;9492;51.888;5.186;2023-08-21T14:05:06;1.40;;;1.00;;
18726;SDS011;9492;51.888;5.186;2023-08-21T14:07:33;3.10;;;1.00;;
18726;SDS011;9492;51.888;5.186;2023-08-21T14:09:59;1.85;;;1.05;;
18726;SDS011;9492;51.888;5.186;2023-08-21T14:12:27;2.22;;;0.90;;
18726;SDS011;9492;51.888;5.186;2023-08-21T14:14:53;4.55;;;1.27;;
18726;SDS011;9492;51.888;5.186;2023-08-21T14:17:19;2.95;;;0.93;;
18726;SDS011;9492;51.888;5.186;2023-08-21T14:19:45;2.70;;;1.23;;
18726;SDS011;9492;51.888;5.186;2023-08-21T14:22:11;2.60;;;0.70;;
18726;SDS011;9492;51.888;5.186;2023-08-21T14:24:37;4.60;;;0.88;;
18726;SDS011;9492;51.888;5.186;2023-08-21T14:27:03;1.10;;;0.80;;
18726;SDS011;9492;51.888;5.186;2023-08-21T14:29:29;1.67;;;0.60;;
18726;SDS011;9492;51.888;5.186;2023-08-21T14:31:55;2.75;;;1.10;;
18726;SDS011;9492;51.888;5.186;2023-08-21T14:34:22;5.28;;;0.88;;
18726;SDS011;9492;51.888;5.186;2023-08-21T14:36:48;1.52;;;1.05;;
18726;SDS011;9492;51.888;5.186;2023-08-21T14:39:14;4.07;;;1.15;;
18726;SDS011;9492;51.888;5.186;2023-08-21T14:41:41;1.30;;;0.80;;
18726;SDS011;9492;51.888;5.186;2023-08-21T14:44:08;0.63;;;0.63;;
18726;SDS011;9492;51.888;5.186;2023-08-21T14:46:34;1.73;;;0.75;;
18726;SDS011;9492;51.888;5.186;2023-08-21T14:49:00;0.90;;;0.77;;
18726;SDS011;9492;51.888;5.186;2023-08-21T14:51:26;1.10;;;0.80;;
18726;SDS011;9492;51.888;5.186;2023-08-21T14:53:53;1.90;;;0.88;;
18726;SDS011;9492;51.888;5.186;2023-08-21T14:56:19;1.55;;;0.90;;
18726;SDS011;9492;51.888;5.186;2023-08-21T14:58:45;1.13;;;0.60;;
18726;SDS011;9492;51.888;5.186;2023-08-21T15:01:11;0.73;;;0.60;;